sensor_id;sensor_type;location;lat;lon;timestamp;temperature;humidity
80176;DHT22;75462;42.122;24.736;2024-02-28T00:00:55;9.40;71.60
80176;DHT22;75462;42.122;24.736;2024-02-28T00:03:21;9.40;71.80
80176;DHT22;75462;42.122;24.736;2024-02-28T00:05:49;9.50;71.90
80176;DHT22;75462;42.122;24.736;2024-02-28T00:08:15;9.50;71.70
80176;DHT22;75462;42.122;24.736;2024-02-28T00:10:42;9.50;71.60
80176;DHT22;75462;42.122;24.736;2024-02-28T00:13:08;9.60;71.40
80176;DHT22;75462;42.122;24.736;2024-02-28T00:15:33;9.60;71.30
80176;DHT22;75462;42.122;24.736;2024-02-28T00:17:59;9.60;71.30
80176;DHT22;75462;42.122;24.736;2024-02-28T00:20:25;9.60;71.60
80176;DHT22;75462;42.122;24.736;2024-02-28T00:22:52;9.60;71.60
80176;DHT22;75462;42.122;24.736;2024-02-28T00:25:18;9.50;71.80
80176;DHT22;75462;42.122;24.736;2024-02-28T00:27:44;9.50;71.80
80176;DHT22;75462;42.122;24.736;2024-02-28T00:30:11;9.40;71.90
80176;DHT22;75462;42.122;24.736;2024-02-28T00:32:37;9.40;72.20
80176;DHT22;75462;42.122;24.736;2024-02-28T00:35:03;9.40;72.20
80176;DHT22;75462;42.122;24.736;2024-02-28T00:37:29;9.40;72.20
80176;DHT22;75462;42.122;24.736;2024-02-28T00:39:55;9.40;72.20
80176;DHT22;75462;42.122;24.736;2024-02-28T00:42:21;9.40;72.00
80176;DHT22;75462;42.122;24.736;2024-02-28T00:44:47;9.40;72.10
80176;DHT22;75462;42.122;24.736;2024-02-28T00:47:13;9.50;71.60
80176;DHT22;75462;42.122;24.736;2024-02-28T00:49:39;9.50;71.30
80176;DHT22;75462;42.122;24.736;2024-02-28T00:52:05;9.50;71.60
80176;DHT22;75462;42.122;24.736;2024-02-28T00:54:31;9.50;71.70
80176;DHT22;75462;42.122;24.736;2024-02-28T00:56:56;9.50;71.40
80176;DHT22;75462;42.122;24.736;2024-02-28T00:59:22;9.40;71.50
80176;DHT22;75462;42.122;24.736;2024-02-28T01:01:51;9.40;71.80
80176;DHT22;75462;42.122;24.736;2024-02-28T01:04:17;9.40;71.70
80176;DHT22;75462;42.122;24.736;2024-02-28T01:06:42;9.40;72.00
80176;DHT22;75462;42.122;24.736;2024-02-28T01:09:08;9.30;72.20
80176;DHT22;75462;42.122;24.736;2024-02-28T01:11:34;9.20;72.70
80176;DHT22;75462;42.122;24.736;2024-02-28T01:14:00;9.30;72.40
80176;DHT22;75462;42.122;24.736;2024-02-28T01:16:25;9.30;72.40
80176;DHT22;75462;42.122;24.736;2024-02-28T01:18:51;9.40;72.20
80176;DHT22;75462;42.122;24.736;2024-02-28T01:21:17;9.30;72.10
80176;DHT22;75462;42.122;24.736;2024-02-28T01:23:43;9.30;72.20
80176;DHT22;75462;42.122;24.736;2024-02-28T01:26:08;9.20;72.50
80176;DHT22;75462;42.122;24.736;2024-02-28T01:28:34;9.10;72.60
80176;DHT22;75462;42.122;24.736;2024-02-28T01:31:00;9.10;72.80
80176;DHT22;75462;42.122;24.736;2024-02-28T01:33:26;9.00;72.90
80176;DHT22;75462;42.122;24.736;2024-02-28T01:35:52;9.00;73.10
80176;DHT22;75462;42.122;24.736;2024-02-28T01:38:18;9.00;73.20
80176;DHT22;75462;42.122;24.736;2024-02-28T01:40:47;8.90;73.50
80176;DHT22;75462;42.122;24.736;2024-02-28T01:43:13;8.90;73.60
80176;DHT22;75462;42.122;24.736;2024-02-28T01:45:39;8.80;73.70
80176;DHT22;75462;42.122;24.736;2024-02-28T01:48:07;8.80;73.80
80176;DHT22;75462;42.122;24.736;2024-02-28T01:50:36;8.80;73.70
80176;DHT22;75462;42.122;24.736;2024-02-28T01:53:03;8.80;73.80
80176;DHT22;75462;42.122;24.736;2024-02-28T01:55:30;8.80;73.80
80176;DHT22;75462;42.122;24.736;2024-02-28T01:57:55;8.80;73.60
80176;DHT22;75462;42.122;24.736;2024-02-28T02:00:22;8.70;73.80
80176;DHT22;75462;42.122;24.736;2024-02-28T02:02:48;8.60;74.10
80176;DHT22;75462;42.122;24.736;2024-02-28T02:05:14;8.60;74.50
80176;DHT22;75462;42.122;24.736;2024-02-28T02:07:42;8.50;74.60
80176;DHT22;75462;42.122;24.736;2024-02-28T02:10:08;8.50;74.50
80176;DHT22;75462;42.122;24.736;2024-02-28T02:12:37;8.60;74.50
80176;DHT22;75462;42.122;24.736;2024-02-28T02:15:03;8.60;74.30
80176;DHT22;75462;42.122;24.736;2024-02-28T02:17:29;8.60;74.20
80176;DHT22;75462;42.122;24.736;2024-02-28T02:19:55;8.60;74.20
80176;DHT22;75462;42.122;24.736;2024-02-28T02:22:21;8.60;74.20
80176;DHT22;75462;42.122;24.736;2024-02-28T02:24:48;8.60;74.40
80176;DHT22;75462;42.122;24.736;2024-02-28T02:27:14;8.60;74.40
80176;DHT22;75462;42.122;24.736;2024-02-28T02:29:40;8.60;74.40
80176;DHT22;75462;42.122;24.736;2024-02-28T02:32:06;8.60;74.10
80176;DHT22;75462;42.122;24.736;2024-02-28T02:34:31;8.60;74.20
80176;DHT22;75462;42.122;24.736;2024-02-28T02:36:57;8.60;74.10
80176;DHT22;75462;42.122;24.736;2024-02-28T02:39:23;8.60;74.00
80176;DHT22;75462;42.122;24.736;2024-02-28T02:41:49;8.60;73.90
80176;DHT22;75462;42.122;24.736;2024-02-28T02:44:14;8.70;73.90
80176;DHT22;75462;42.122;24.736;2024-02-28T02:46:40;8.60;73.90
80176;DHT22;75462;42.122;24.736;2024-02-28T02:49:06;8.70;74.00
80176;DHT22;75462;42.122;24.736;2024-02-28T02:51:31;8.60;73.90
80176;DHT22;75462;42.122;24.736;2024-02-28T02:53:57;8.60;74.10
80176;DHT22;75462;42.122;24.736;2024-02-28T02:56:23;8.70;74.00
80176;DHT22;75462;42.122;24.736;2024-02-28T02:58:48;8.70;73.80
80176;DHT22;75462;42.122;24.736;2024-02-28T03:01:14;8.70;73.70
80176;DHT22;75462;42.122;24.736;2024-02-28T03:03:40;8.70;73.70
80176;DHT22;75462;42.122;24.736;2024-02-28T03:06:06;8.70;74.90
80176;DHT22;75462;42.122;24.736;2024-02-28T03:08:32;8.60;73.90
80176;DHT22;75462;42.122;24.736;2024-02-28T03:10:59;8.60;74.20
80176;DHT22;75462;42.122;24.736;2024-02-28T03:13:25;8.60;74.50
80176;DHT22;75462;42.122;24.736;2024-02-28T03:15:50;8.60;74.20
80176;DHT22;75462;42.122;24.736;2024-02-28T03:18:16;8.70;74.00
80176;DHT22;75462;42.122;24.736;2024-02-28T03:20:42;8.70;74.00
80176;DHT22;75462;42.122;24.736;2024-02-28T03:23:08;8.70;74.10
80176;DHT22;75462;42.122;24.736;2024-02-28T03:25:33;8.70;74.10
80176;DHT22;75462;42.122;24.736;2024-02-28T03:28:00;8.70;73.90
80176;DHT22;75462;42.122;24.736;2024-02-28T03:30:26;8.80;73.80
80176;DHT22;75462;42.122;24.736;2024-02-28T03:32:52;8.70;73.80
80176;DHT22;75462;42.122;24.736;2024-02-28T03:35:18;8.80;73.70
80176;DHT22;75462;42.122;24.736;2024-02-28T03:37:43;8.80;73.50
80176;DHT22;75462;42.122;24.736;2024-02-28T03:40:09;8.80;73.60
80176;DHT22;75462;42.122;24.736;2024-02-28T03:42:35;8.80;73.80
80176;DHT22;75462;42.122;24.736;2024-02-28T03:45:01;8.70;73.90
80176;DHT22;75462;42.122;24.736;2024-02-28T03:47:27;8.70;74.20
80176;DHT22;75462;42.122;24.736;2024-02-28T03:49:52;8.60;74.30
80176;DHT22;75462;42.122;24.736;2024-02-28T03:52:23;8.60;74.50
80176;DHT22;75462;42.122;24.736;2024-02-28T03:54:48;8.60;74.40
80176;DHT22;75462;42.122;24.736;2024-02-28T03:57:14;8.60;74.30
80176;DHT22;75462;42.122;24.736;2024-02-28T03:59:43;8.60;74.20
80176;DHT22;75462;42.122;24.736;2024-02-28T04:02:09;8.60;74.20
80176;DHT22;75462;42.122;24.736;2024-02-28T04:04:35;8.60;74.30
80176;DHT22;75462;42.122;24.736;2024-02-28T04:07:01;8.60;74.20
80176;DHT22;75462;42.122;24.736;2024-02-28T04:09:26;8.70;74.10
80176;DHT22;75462;42.122;24.736;2024-02-28T04:11:52;8.60;74.00
80176;DHT22;75462;42.122;24.736;2024-02-28T04:14:18;8.60;74.20
80176;DHT22;75462;42.122;24.736;2024-02-28T04:16:44;8.60;74.40
80176;DHT22;75462;42.122;24.736;2024-02-28T04:19:10;8.50;74.70
80176;DHT22;75462;42.122;24.736;2024-02-28T04:21:37;8.50;74.90
80176;DHT22;75462;42.122;24.736;2024-02-28T04:24:03;8.50;74.80
80176;DHT22;75462;42.122;24.736;2024-02-28T04:26:29;8.50;75.70
80176;DHT22;75462;42.122;24.736;2024-02-28T04:28:55;8.50;74.50
80176;DHT22;75462;42.122;24.736;2024-02-28T04:31:21;8.50;74.80
80176;DHT22;75462;42.122;24.736;2024-02-28T04:33:47;8.40;75.00
80176;DHT22;75462;42.122;24.736;2024-02-28T04:36:13;8.40;75.20
80176;DHT22;75462;42.122;24.736;2024-02-28T04:38:40;8.40;75.50
80176;DHT22;75462;42.122;24.736;2024-02-28T04:41:05;8.30;75.50
80176;DHT22;75462;42.122;24.736;2024-02-28T04:43:31;8.30;75.60
80176;DHT22;75462;42.122;24.736;2024-02-28T04:45:57;8.30;75.50
80176;DHT22;75462;42.122;24.736;2024-02-28T04:48:22;8.20;75.00
80176;DHT22;75462;42.122;24.736;2024-02-28T04:50:48;8.10;75.10
80176;DHT22;75462;42.122;24.736;2024-02-28T04:53:14;7.90;75.40
80176;DHT22;75462;42.122;24.736;2024-02-28T04:55:39;7.90;75.10
80176;DHT22;75462;42.122;24.736;2024-02-28T04:58:05;8.00;74.40
80176;DHT22;75462;42.122;24.736;2024-02-28T05:00:31;8.00;74.20
80176;DHT22;75462;42.122;24.736;2024-02-28T05:02:57;7.90;74.50
80176;DHT22;75462;42.122;24.736;2024-02-28T05:05:22;7.90;74.70
80176;DHT22;75462;42.122;24.736;2024-02-28T05:07:48;8.00;74.10
80176;DHT22;75462;42.122;24.736;2024-02-28T05:10:14;8.10;73.40
80176;DHT22;75462;42.122;24.736;2024-02-28T05:12:39;8.10;74.10
80176;DHT22;75462;42.122;24.736;2024-02-28T05:15:05;8.10;74.40
80176;DHT22;75462;42.122;24.736;2024-02-28T05:17:32;8.10;74.50
80176;DHT22;75462;42.122;24.736;2024-02-28T05:19:58;8.20;74.20
80176;DHT22;75462;42.122;24.736;2024-02-28T05:22:23;8.20;74.40
80176;DHT22;75462;42.122;24.736;2024-02-28T05:24:49;8.30;74.20
80176;DHT22;75462;42.122;24.736;2024-02-28T05:27:15;8.40;73.30
80176;DHT22;75462;42.122;24.736;2024-02-28T05:29:40;8.50;73.30
80176;DHT22;75462;42.122;24.736;2024-02-28T05:32:08;8.50;73.20
80176;DHT22;75462;42.122;24.736;2024-02-28T05:34:34;8.50;73.40
80176;DHT22;75462;42.122;24.736;2024-02-28T05:37:00;8.50;73.20
80176;DHT22;75462;42.122;24.736;2024-02-28T05:39:27;8.50;72.80
80176;DHT22;75462;42.122;24.736;2024-02-28T05:41:56;8.50;72.50
80176;DHT22;75462;42.122;24.736;2024-02-28T05:44:22;8.60;71.90
80176;DHT22;75462;42.122;24.736;2024-02-28T05:46:49;8.60;71.80
80176;DHT22;75462;42.122;24.736;2024-02-28T05:49:15;8.60;71.70
80176;DHT22;75462;42.122;24.736;2024-02-28T05:51:41;8.70;71.40
80176;DHT22;75462;42.122;24.736;2024-02-28T05:54:06;8.60;71.70
80176;DHT22;75462;42.122;24.736;2024-02-28T05:56:32;8.60;71.70
80176;DHT22;75462;42.122;24.736;2024-02-28T05:58:58;8.50;72.70
80176;DHT22;75462;42.122;24.736;2024-02-28T06:01:23;8.60;71.80
80176;DHT22;75462;42.122;24.736;2024-02-28T06:03:49;8.80;70.90
80176;DHT22;75462;42.122;24.736;2024-02-28T06:06:16;8.90;70.90
80176;DHT22;75462;42.122;24.736;2024-02-28T06:08:43;8.90;70.70
80176;DHT22;75462;42.122;24.736;2024-02-28T06:11:09;9.10;69.90
80176;DHT22;75462;42.122;24.736;2024-02-28T06:13:35;9.20;69.50
80176;DHT22;75462;42.122;24.736;2024-02-28T06:16:01;9.30;69.20
80176;DHT22;75462;42.122;24.736;2024-02-28T06:18:27;9.30;69.20
80176;DHT22;75462;42.122;24.736;2024-02-28T06:20:54;9.30;69.30
80176;DHT22;75462;42.122;24.736;2024-02-28T06:23:21;9.30;68.80
80176;DHT22;75462;42.122;24.736;2024-02-28T06:25:47;9.20;69.50
80176;DHT22;75462;42.122;24.736;2024-02-28T06:28:12;9.00;70.00
80176;DHT22;75462;42.122;24.736;2024-02-28T06:30:38;8.90;70.90
80176;DHT22;75462;42.122;24.736;2024-02-28T06:33:04;8.90;71.50
80176;DHT22;75462;42.122;24.736;2024-02-28T06:35:30;9.00;71.70
80176;DHT22;75462;42.122;24.736;2024-02-28T06:37:56;9.00;71.70
80176;DHT22;75462;42.122;24.736;2024-02-28T06:40:21;9.20;71.30
80176;DHT22;75462;42.122;24.736;2024-02-28T06:42:47;9.20;70.80
80176;DHT22;75462;42.122;24.736;2024-02-28T06:45:13;9.30;71.00
80176;DHT22;75462;42.122;24.736;2024-02-28T06:47:38;9.30;71.00
80176;DHT22;75462;42.122;24.736;2024-02-28T06:50:06;9.30;71.00
80176;DHT22;75462;42.122;24.736;2024-02-28T06:52:32;9.40;70.70
80176;DHT22;75462;42.122;24.736;2024-02-28T06:54:58;9.50;70.40
80176;DHT22;75462;42.122;24.736;2024-02-28T06:57:26;9.70;69.80
80176;DHT22;75462;42.122;24.736;2024-02-28T06:59:52;9.70;69.30
80176;DHT22;75462;42.122;24.736;2024-02-28T07:02:17;9.70;69.80
80176;DHT22;75462;42.122;24.736;2024-02-28T07:04:43;9.80;70.10
80176;DHT22;75462;42.122;24.736;2024-02-28T07:07:09;9.80;70.20
80176;DHT22;75462;42.122;24.736;2024-02-28T07:09:34;9.80;70.00
80176;DHT22;75462;42.122;24.736;2024-02-28T07:12:00;9.70;70.00
80176;DHT22;75462;42.122;24.736;2024-02-28T07:14:29;9.70;71.00
80176;DHT22;75462;42.122;24.736;2024-02-28T07:16:55;9.60;71.30
80176;DHT22;75462;42.122;24.736;2024-02-28T07:19:21;9.60;71.50
80176;DHT22;75462;42.122;24.736;2024-02-28T07:21:46;9.60;71.80
80176;DHT22;75462;42.122;24.736;2024-02-28T07:24:12;9.60;71.60
80176;DHT22;75462;42.122;24.736;2024-02-28T07:26:38;9.60;71.40
80176;DHT22;75462;42.122;24.736;2024-02-28T07:29:05;9.60;71.40
80176;DHT22;75462;42.122;24.736;2024-02-28T07:31:31;9.70;71.40
80176;DHT22;75462;42.122;24.736;2024-02-28T07:33:57;9.70;70.80
80176;DHT22;75462;42.122;24.736;2024-02-28T07:36:23;9.80;70.30
80176;DHT22;75462;42.122;24.736;2024-02-28T07:38:48;9.70;70.20
80176;DHT22;75462;42.122;24.736;2024-02-28T07:41:14;9.80;70.10
80176;DHT22;75462;42.122;24.736;2024-02-28T07:43:43;9.90;69.50
80176;DHT22;75462;42.122;24.736;2024-02-28T07:46:09;10.00;69.30
80176;DHT22;75462;42.122;24.736;2024-02-28T07:48:36;10.10;68.90
80176;DHT22;75462;42.122;24.736;2024-02-28T07:51:05;10.00;69.70
80176;DHT22;75462;42.122;24.736;2024-02-28T07:53:31;10.10;70.10
80176;DHT22;75462;42.122;24.736;2024-02-28T07:56:00;10.50;68.60
80176;DHT22;75462;42.122;24.736;2024-02-28T07:58:26;10.70;66.90
80176;DHT22;75462;42.122;24.736;2024-02-28T08:00:51;10.90;66.20
80176;DHT22;75462;42.122;24.736;2024-02-28T08:03:20;10.90;66.00
80176;DHT22;75462;42.122;24.736;2024-02-28T08:05:46;10.90;66.10
80176;DHT22;75462;42.122;24.736;2024-02-28T08:08:14;11.00;66.40
80176;DHT22;75462;42.122;24.736;2024-02-28T08:10:40;11.00;66.70
80176;DHT22;75462;42.122;24.736;2024-02-28T08:13:05;10.90;66.40
80176;DHT22;75462;42.122;24.736;2024-02-28T08:15:32;11.00;66.40
80176;DHT22;75462;42.122;24.736;2024-02-28T08:17:58;11.00;66.40
80176;DHT22;75462;42.122;24.736;2024-02-28T08:20:24;11.00;66.40
80176;DHT22;75462;42.122;24.736;2024-02-28T08:22:49;11.10;67.00
80176;DHT22;75462;42.122;24.736;2024-02-28T08:25:18;11.30;65.70
80176;DHT22;75462;42.122;24.736;2024-02-28T08:27:44;11.30;65.20
80176;DHT22;75462;42.122;24.736;2024-02-28T08:30:10;11.40;65.40
80176;DHT22;75462;42.122;24.736;2024-02-28T08:32:35;11.40;65.20
80176;DHT22;75462;42.122;24.736;2024-02-28T08:35:01;11.50;65.20
80176;DHT22;75462;42.122;24.736;2024-02-28T08:37:27;11.60;65.60
80176;DHT22;75462;42.122;24.736;2024-02-28T08:39:54;11.60;65.70
80176;DHT22;75462;42.122;24.736;2024-02-28T08:42:25;11.90;64.30
80176;DHT22;75462;42.122;24.736;2024-02-28T08:44:51;12.30;63.00
80176;DHT22;75462;42.122;24.736;2024-02-28T08:47:16;12.30;62.10
80176;DHT22;75462;42.122;24.736;2024-02-28T08:49:44;12.40;62.30
80176;DHT22;75462;42.122;24.736;2024-02-28T08:52:10;12.40;62.50
80176;DHT22;75462;42.122;24.736;2024-02-28T08:54:36;12.50;62.40
80176;DHT22;75462;42.122;24.736;2024-02-28T08:57:01;12.50;62.70
80176;DHT22;75462;42.122;24.736;2024-02-28T08:59:27;12.60;62.10
80176;DHT22;75462;42.122;24.736;2024-02-28T09:01:53;12.70;62.40
80176;DHT22;75462;42.122;24.736;2024-02-28T09:04:19;12.90;61.90
80176;DHT22;75462;42.122;24.736;2024-02-28T09:06:45;13.10;61.30
80176;DHT22;75462;42.122;24.736;2024-02-28T09:09:10;13.30;60.00
80176;DHT22;75462;42.122;24.736;2024-02-28T09:11:36;13.20;61.10
80176;DHT22;75462;42.122;24.736;2024-02-28T09:14:02;13.30;60.30
80176;DHT22;75462;42.122;24.736;2024-02-28T09:16:28;13.40;59.90
80176;DHT22;75462;42.122;24.736;2024-02-28T09:18:54;13.40;59.50
80176;DHT22;75462;42.122;24.736;2024-02-28T09:21:20;13.40;59.70
80176;DHT22;75462;42.122;24.736;2024-02-28T09:23:45;13.40;60.00
80176;DHT22;75462;42.122;24.736;2024-02-28T09:26:11;13.40;60.10
80176;DHT22;75462;42.122;24.736;2024-02-28T09:28:37;13.50;60.10
80176;DHT22;75462;42.122;24.736;2024-02-28T09:31:02;13.60;60.00
80176;DHT22;75462;42.122;24.736;2024-02-28T09:33:29;13.70;59.20
80176;DHT22;75462;42.122;24.736;2024-02-28T09:35:55;13.80;59.30
80176;DHT22;75462;42.122;24.736;2024-02-28T09:38:20;13.80;58.80
80176;DHT22;75462;42.122;24.736;2024-02-28T09:40:48;14.10;58.50
80176;DHT22;75462;42.122;24.736;2024-02-28T09:43:24;14.30;57.90
80176;DHT22;75462;42.122;24.736;2024-02-28T09:45:57;14.40;56.80
80176;DHT22;75462;42.122;24.736;2024-02-28T09:48:23;14.50;56.70
80176;DHT22;75462;42.122;24.736;2024-02-28T09:50:51;14.60;56.80
80176;DHT22;75462;42.122;24.736;2024-02-28T09:53:17;14.80;56.80
80176;DHT22;75462;42.122;24.736;2024-02-28T09:55:43;14.90;55.80
80176;DHT22;75462;42.122;24.736;2024-02-28T09:58:10;15.10;54.10
80176;DHT22;75462;42.122;24.736;2024-02-28T10:00:37;15.20;54.40
80176;DHT22;75462;42.122;24.736;2024-02-28T10:03:04;15.10;54.00
80176;DHT22;75462;42.122;24.736;2024-02-28T10:05:30;15.00;54.40
80176;DHT22;75462;42.122;24.736;2024-02-28T10:07:58;15.00;54.30
80176;DHT22;75462;42.122;24.736;2024-02-28T10:10:24;15.20;54.20
80176;DHT22;75462;42.122;24.736;2024-02-28T10:12:50;15.40;54.30
80176;DHT22;75462;42.122;24.736;2024-02-28T10:15:16;15.50;53.90
80176;DHT22;75462;42.122;24.736;2024-02-28T10:17:41;15.50;53.60
80176;DHT22;75462;42.122;24.736;2024-02-28T10:20:09;15.90;52.50
80176;DHT22;75462;42.122;24.736;2024-02-28T10:22:36;16.10;51.10
80176;DHT22;75462;42.122;24.736;2024-02-28T10:25:02;16.00;51.30
80176;DHT22;75462;42.122;24.736;2024-02-28T10:27:32;15.80;51.40
80176;DHT22;75462;42.122;24.736;2024-02-28T10:29:58;15.80;52.50
80176;DHT22;75462;42.122;24.736;2024-02-28T10:32:23;16.00;51.90
80176;DHT22;75462;42.122;24.736;2024-02-28T10:34:49;16.10;51.50
80176;DHT22;75462;42.122;24.736;2024-02-28T10:37:16;16.20;51.00
80176;DHT22;75462;42.122;24.736;2024-02-28T10:39:43;16.40;50.20
80176;DHT22;75462;42.122;24.736;2024-02-28T10:42:09;16.50;50.00
80176;DHT22;75462;42.122;24.736;2024-02-28T10:44:37;16.50;49.50
80176;DHT22;75462;42.122;24.736;2024-02-28T10:47:05;16.40;50.70
80176;DHT22;75462;42.122;24.736;2024-02-28T10:49:33;16.40;50.40
80176;DHT22;75462;42.122;24.736;2024-02-28T10:51:59;16.50;50.00
80176;DHT22;75462;42.122;24.736;2024-02-28T10:54:29;16.40;50.40
80176;DHT22;75462;42.122;24.736;2024-02-28T10:56:55;16.40;50.20
80176;DHT22;75462;42.122;24.736;2024-02-28T10:59:23;16.50;50.00
80176;DHT22;75462;42.122;24.736;2024-02-28T11:01:50;16.60;49.80
80176;DHT22;75462;42.122;24.736;2024-02-28T11:04:17;16.60;49.40
80176;DHT22;75462;42.122;24.736;2024-02-28T11:06:51;16.60;49.90
80176;DHT22;75462;42.122;24.736;2024-02-28T11:09:29;16.60;49.40
80176;DHT22;75462;42.122;24.736;2024-02-28T11:11:58;16.40;49.70
80176;DHT22;75462;42.122;24.736;2024-02-28T11:14:23;16.40;50.10
80176;DHT22;75462;42.122;24.736;2024-02-28T11:17:04;16.40;49.80
80176;DHT22;75462;42.122;24.736;2024-02-28T11:19:31;16.60;49.50
80176;DHT22;75462;42.122;24.736;2024-02-28T11:21:59;16.70;48.60
80176;DHT22;75462;42.122;24.736;2024-02-28T11:24:32;17.00;48.30
80176;DHT22;75462;42.122;24.736;2024-02-28T11:26:58;17.30;47.50
80176;DHT22;75462;42.122;24.736;2024-02-28T11:29:25;17.40;47.00
80176;DHT22;75462;42.122;24.736;2024-02-28T11:31:51;17.40;46.20
80176;DHT22;75462;42.122;24.736;2024-02-28T11:34:17;17.50;46.70
80176;DHT22;75462;42.122;24.736;2024-02-28T11:36:43;17.50;46.30
80176;DHT22;75462;42.122;24.736;2024-02-28T11:39:13;17.60;46.20
80176;DHT22;75462;42.122;24.736;2024-02-28T11:41:43;17.80;46.10
80176;DHT22;75462;42.122;24.736;2024-02-28T11:44:12;18.00;45.30
80176;DHT22;75462;42.122;24.736;2024-02-28T11:46:42;18.40;44.30
80176;DHT22;75462;42.122;24.736;2024-02-28T11:49:08;18.50;43.20
80176;DHT22;75462;42.122;24.736;2024-02-28T11:51:33;18.60;44.00
80176;DHT22;75462;42.122;24.736;2024-02-28T11:54:02;18.60;43.10
80176;DHT22;75462;42.122;24.736;2024-02-28T11:56:27;18.60;42.80
80176;DHT22;75462;42.122;24.736;2024-02-28T11:58:53;18.80;43.20
80176;DHT22;75462;42.122;24.736;2024-02-28T12:03:58;19.70;39.70
80176;DHT22;75462;42.122;24.736;2024-02-28T12:06:24;20.10;38.90
80176;DHT22;75462;42.122;24.736;2024-02-28T12:08:50;20.20;37.90
80176;DHT22;75462;42.122;24.736;2024-02-28T12:11:16;20.30;37.00
80176;DHT22;75462;42.122;24.736;2024-02-28T12:13:41;20.50;36.40
80176;DHT22;75462;42.122;24.736;2024-02-28T12:16:08;20.40;36.70
80176;DHT22;75462;42.122;24.736;2024-02-28T12:18:35;20.50;37.00
80176;DHT22;75462;42.122;24.736;2024-02-28T12:21:02;20.40;37.00
80176;DHT22;75462;42.122;24.736;2024-02-28T12:23:29;20.70;36.60
80176;DHT22;75462;42.122;24.736;2024-02-28T12:25:55;21.10;36.00
80176;DHT22;75462;42.122;24.736;2024-02-28T12:28:20;21.90;34.70
80176;DHT22;75462;42.122;24.736;2024-02-28T12:30:47;22.20;33.90
80176;DHT22;75462;42.122;24.736;2024-02-28T12:33:12;22.60;33.30
80176;DHT22;75462;42.122;24.736;2024-02-28T12:35:39;22.50;32.30
80176;DHT22;75462;42.122;24.736;2024-02-28T12:38:05;22.00;33.30
80176;DHT22;75462;42.122;24.736;2024-02-28T12:40:31;21.40;34.70
80176;DHT22;75462;42.122;24.736;2024-02-28T12:42:57;20.80;36.10
80176;DHT22;75462;42.122;24.736;2024-02-28T12:45:22;21.10;36.00
80176;DHT22;75462;42.122;24.736;2024-02-28T12:47:48;21.50;34.90
80176;DHT22;75462;42.122;24.736;2024-02-28T12:50:14;21.50;34.60
80176;DHT22;75462;42.122;24.736;2024-02-28T12:52:40;21.00;35.10
80176;DHT22;75462;42.122;24.736;2024-02-28T12:55:05;20.30;37.10
80176;DHT22;75462;42.122;24.736;2024-02-28T12:57:31;20.10;38.00
80176;DHT22;75462;42.122;24.736;2024-02-28T12:59:57;20.30;37.60
80176;DHT22;75462;42.122;24.736;2024-02-28T13:02:23;20.40;37.20
80176;DHT22;75462;42.122;24.736;2024-02-28T13:04:48;20.20;37.70
80176;DHT22;75462;42.122;24.736;2024-02-28T13:07:14;20.20;38.10
80176;DHT22;75462;42.122;24.736;2024-02-28T13:09:41;20.80;37.20
80176;DHT22;75462;42.122;24.736;2024-02-28T13:12:07;20.80;36.20
80176;DHT22;75462;42.122;24.736;2024-02-28T13:14:34;20.60;37.00
80176;DHT22;75462;42.122;24.736;2024-02-28T13:17:00;20.50;37.30
80176;DHT22;75462;42.122;24.736;2024-02-28T13:19:25;20.40;37.70
80176;DHT22;75462;42.122;24.736;2024-02-28T13:21:51;20.20;38.00
80176;DHT22;75462;42.122;24.736;2024-02-28T13:24:17;20.60;37.30
80176;DHT22;75462;42.122;24.736;2024-02-28T13:26:43;20.90;36.80
80176;DHT22;75462;42.122;24.736;2024-02-28T13:29:09;20.80;36.50
80176;DHT22;75462;42.122;24.736;2024-02-28T13:31:35;20.70;37.00
80176;DHT22;75462;42.122;24.736;2024-02-28T13:34:01;20.70;37.30
80176;DHT22;75462;42.122;24.736;2024-02-28T13:36:29;20.80;37.10
80176;DHT22;75462;42.122;24.736;2024-02-28T13:38:57;20.70;36.80
80176;DHT22;75462;42.122;24.736;2024-02-28T13:41:23;20.80;36.80
80176;DHT22;75462;42.122;24.736;2024-02-28T13:43:49;20.80;37.10
80176;DHT22;75462;42.122;24.736;2024-02-28T13:46:15;21.00;36.70
80176;DHT22;75462;42.122;24.736;2024-02-28T13:48:41;21.70;34.60
80176;DHT22;75462;42.122;24.736;2024-02-28T13:51:06;22.40;33.20
80176;DHT22;75462;42.122;24.736;2024-02-28T13:53:32;22.50;32.80
80176;DHT22;75462;42.122;24.736;2024-02-28T13:55:57;22.30;33.40
80176;DHT22;75462;42.122;24.736;2024-02-28T13:58:23;21.70;34.20
80176;DHT22;75462;42.122;24.736;2024-02-28T14:00:49;21.40;34.90
80176;DHT22;75462;42.122;24.736;2024-02-28T14:03:15;20.90;36.10
80176;DHT22;75462;42.122;24.736;2024-02-28T14:05:41;20.30;37.50
80176;DHT22;75462;42.122;24.736;2024-02-28T14:08:07;19.90;39.00
80176;DHT22;75462;42.122;24.736;2024-02-28T14:10:34;19.50;40.10
80176;DHT22;75462;42.122;24.736;2024-02-28T14:13:00;19.40;40.50
80176;DHT22;75462;42.122;24.736;2024-02-28T14:15:26;19.20;41.00
80176;DHT22;75462;42.122;24.736;2024-02-28T14:17:52;19.20;41.40
80176;DHT22;75462;42.122;24.736;2024-02-28T14:20:18;19.20;41.70
80176;DHT22;75462;42.122;24.736;2024-02-28T14:22:44;19.20;41.70
80176;DHT22;75462;42.122;24.736;2024-02-28T14:25:15;19.40;41.10
80176;DHT22;75462;42.122;24.736;2024-02-28T14:27:43;19.60;40.40
80176;DHT22;75462;42.122;24.736;2024-02-28T14:30:10;19.60;40.00
80176;DHT22;75462;42.122;24.736;2024-02-28T14:32:39;19.60;40.00
80176;DHT22;75462;42.122;24.736;2024-02-28T14:35:06;19.70;40.40
80176;DHT22;75462;42.122;24.736;2024-02-28T14:37:33;19.60;40.20
80176;DHT22;75462;42.122;24.736;2024-02-28T14:40:00;19.50;40.80
80176;DHT22;75462;42.122;24.736;2024-02-28T14:42:26;19.40;41.20
80176;DHT22;75462;42.122;24.736;2024-02-28T14:44:53;19.50;40.90
80176;DHT22;75462;42.122;24.736;2024-02-28T14:47:19;19.50;40.80
80176;DHT22;75462;42.122;24.736;2024-02-28T14:49:46;19.30;41.50
80176;DHT22;75462;42.122;24.736;2024-02-28T14:52:12;19.20;41.80
80176;DHT22;75462;42.122;24.736;2024-02-28T14:54:39;19.20;41.40
80176;DHT22;75462;42.122;24.736;2024-02-28T14:57:05;19.10;41.50
80176;DHT22;75462;42.122;24.736;2024-02-28T14:59:32;19.10;41.40
80176;DHT22;75462;42.122;24.736;2024-02-28T15:01:59;18.90;42.50
80176;DHT22;75462;42.122;24.736;2024-02-28T15:04:25;18.60;43.10
80176;DHT22;75462;42.122;24.736;2024-02-28T15:06:50;18.40;43.80
80176;DHT22;75462;42.122;24.736;2024-02-28T15:09:20;18.30;44.20
80176;DHT22;75462;42.122;24.736;2024-02-28T15:11:48;18.30;44.30
80176;DHT22;75462;42.122;24.736;2024-02-28T15:14:14;18.30;44.30
80176;DHT22;75462;42.122;24.736;2024-02-28T15:16:40;18.50;43.70
80176;DHT22;75462;42.122;24.736;2024-02-28T15:19:06;18.10;44.90